createdAt,value
2022-12-22T00:00:31.952Z,5.21
2022-12-22T00:03:17.559Z,5.24
2022-12-22T00:06:03.143Z,5.24
2022-12-22T00:08:48.663Z,5.25
2022-12-22T00:11:36.042Z,5.23
2022-12-22T00:14:22.180Z,5.21
2022-12-22T00:17:07.413Z,5.21
2022-12-22T00:19:52.781Z,5.16
2022-12-22T00:22:40.213Z,5.15
2022-12-22T00:25:26.551Z,5.13
2022-12-22T00:28:11.999Z,5.08
2022-12-22T00:30:57.562Z,5.07
2022-12-22T00:33:43.071Z,5.06
2022-12-22T00:36:29.897Z,5.08
2022-12-22T00:39:15.359Z,5.08
2022-12-22T00:42:00.697Z,5.06
2022-12-22T00:44:46.424Z,5.08
2022-12-22T00:47:34.075Z,5.08
2022-12-22T00:50:19.527Z,5.05
2022-12-22T00:53:05.032Z,5.05
2022-12-22T00:55:51.017Z,5.05
2022-12-22T00:58:38.081Z,5.06
2022-12-22T01:01:23.672Z,5.08
2022-12-22T01:04:08.932Z,5.06
2022-12-22T01:06:54.952Z,5.06
2022-12-22T01:09:41.446Z,5.08
2022-12-22T01:12:37.307Z,5.08
2022-12-22T01:15:25.535Z,5.08
2022-12-22T01:18:11.299Z,5.09
2022-12-22T01:20:56.709Z,5.09
2022-12-22T01:23:42.093Z,5.10
2022-12-22T01:26:29.888Z,5.12
2022-12-22T01:29:15.388Z,5.09
2022-12-22T01:32:00.746Z,5.12
2022-12-22T01:34:46.503Z,5.12
2022-12-22T01:37:31.956Z,5.12
2022-12-22T01:40:17.429Z,5.11
2022-12-22T01:43:02.872Z,5.09
2022-12-22T01:45:50.921Z,5.07
2022-12-22T01:48:56.669Z,5.08
2022-12-22T01:51:47.593Z,5.10
2022-12-22T01:54:33.616Z,5.10
2022-12-22T01:57:19.001Z,5.12
2022-12-22T02:00:04.353Z,5.15
2022-12-22T02:02:57.819Z,5.15
2022-12-22T02:05:43.527Z,5.12
2022-12-22T02:08:39.986Z,5.13
2022-12-22T02:11:40.962Z,5.15
2022-12-22T02:14:31.953Z,5.07
2022-12-22T02:18:03.031Z,5.09
2022-12-22T02:20:48.359Z,5.11
2022-12-22T02:24:00.265Z,5.11
2022-12-22T02:27:05.167Z,5.09
2022-12-22T02:29:58.291Z,5.13
2022-12-22T02:32:44.327Z,5.12
2022-12-22T02:35:35.523Z,5.12
2022-12-22T02:38:23.799Z,5.02
2022-12-22T02:41:18.324Z,5.07
2022-12-22T02:44:44.191Z,5.08
2022-12-22T02:47:43.359Z,5.10
2022-12-22T02:50:37.507Z,5.07
2022-12-22T02:53:24.521Z,5.12
2022-12-22T02:56:17.825Z,5.12
2022-12-22T02:59:03.288Z,5.12
2022-12-22T03:01:48.759Z,5.13
2022-12-22T03:04:34.420Z,5.14
2022-12-22T03:07:19.853Z,5.15
2022-12-22T03:10:05.309Z,5.15
2022-12-22T03:12:50.791Z,5.12
2022-12-22T03:15:36.206Z,5.14
2022-12-22T03:18:24.562Z,5.17
2022-12-22T03:21:09.928Z,5.16
2022-12-22T03:23:55.350Z,5.13
2022-12-22T03:26:22.044Z,5.13
2022-12-22T03:28:48.686Z,5.15
2022-12-22T03:31:15.716Z,5.15
2022-12-22T03:33:42.550Z,5.10
2022-12-22T03:36:09.598Z,5.09
2022-12-22T03:38:36.469Z,5.06
2022-12-22T03:41:03.319Z,5.06
2022-12-22T03:43:48.848Z,5.07
2022-12-22T03:46:32.508Z,5.04
2022-12-22T03:49:10.356Z,5.06
2022-12-22T03:51:44.839Z,5.07
2022-12-22T03:54:17.004Z,5.06
2022-12-22T03:56:44.007Z,5.09
2022-12-22T03:59:11.365Z,5.08
2022-12-22T04:01:41.618Z,5.11
2022-12-22T04:04:08.938Z,5.10
2022-12-22T04:06:35.638Z,5.12
2022-12-22T04:09:02.492Z,5.14
2022-12-22T04:12:04.649Z,5.13
2022-12-22T04:14:34.203Z,5.15
2022-12-22T04:17:02.846Z,5.14
2022-12-22T04:19:29.908Z,5.16
2022-12-22T04:21:57.345Z,5.15
2022-12-22T04:24:26.209Z,5.26
2022-12-22T04:26:53.272Z,5.30
2022-12-22T04:29:19.941Z,5.34
2022-12-22T04:31:46.655Z,5.37
2022-12-22T04:34:13.389Z,5.34
2022-12-22T04:36:40.120Z,5.29
2022-12-22T04:39:28.837Z,5.27
2022-12-22T04:42:12.408Z,5.29
2022-12-22T04:44:39.207Z,5.27
2022-12-22T04:47:06.040Z,5.29
2022-12-22T04:49:32.919Z,5.31
2022-12-22T04:52:02.903Z,5.30
2022-12-22T04:54:32.961Z,5.30
2022-12-22T04:57:03.398Z,5.31
2022-12-22T04:59:30.085Z,5.31
2022-12-22T05:01:57.084Z,5.32
2022-12-22T05:04:24.178Z,5.34
2022-12-22T05:06:54.119Z,5.34
2022-12-22T05:09:23.948Z,5.33
2022-12-22T05:11:50.834Z,5.30
2022-12-22T05:14:17.571Z,5.32
2022-12-22T05:16:44.364Z,5.31
2022-12-22T05:19:11.139Z,5.32
2022-12-22T05:21:37.887Z,5.32
2022-12-22T05:24:04.956Z,5.32
2022-12-22T05:26:31.682Z,5.29
2022-12-22T05:28:58.357Z,5.28
2022-12-22T05:31:25.993Z,5.34
2022-12-22T05:33:52.949Z,5.31
2022-12-22T05:36:19.894Z,5.25
2022-12-22T05:38:46.683Z,5.27
2022-12-22T05:41:13.795Z,5.27
2022-12-22T05:43:40.560Z,5.26
2022-12-22T05:46:09.794Z,5.29
2022-12-22T05:48:38.864Z,5.28
2022-12-22T05:51:07.522Z,5.29
2022-12-22T05:53:34.307Z,5.32
2022-12-22T05:56:01.287Z,5.40
2022-12-22T05:58:27.979Z,5.39
2022-12-22T06:00:58.842Z,5.43
2022-12-22T06:03:26.853Z,5.44
2022-12-22T06:05:54.004Z,5.46
2022-12-22T06:08:20.670Z,5.48
2022-12-22T06:10:47.467Z,5.52
2022-12-22T06:13:14.501Z,5.51
2022-12-22T06:15:41.188Z,5.50
2022-12-22T06:18:07.901Z,5.51
2022-12-22T06:20:34.608Z,5.49
2022-12-22T06:23:01.323Z,5.53
2022-12-22T06:25:28.004Z,5.55
2022-12-22T06:27:54.710Z,5.64
2022-12-22T06:30:25.772Z,5.66
2022-12-22T06:32:56.028Z,5.59
2022-12-22T06:35:22.900Z,5.60
2022-12-22T06:37:49.612Z,5.60
2022-12-22T06:40:16.303Z,5.60
2022-12-22T06:43:08.003Z,5.62
2022-12-22T06:45:41.173Z,5.58
2022-12-22T06:48:09.057Z,5.60
2022-12-22T06:50:35.857Z,5.60
2022-12-22T06:53:03.353Z,5.65
2022-12-22T06:55:30.115Z,5.67
2022-12-22T06:57:56.786Z,5.64
2022-12-22T07:00:23.558Z,5.67
2022-12-22T07:02:50.505Z,5.66
2022-12-22T07:05:17.685Z,5.70
2022-12-22T07:07:44.441Z,5.67
2022-12-22T07:10:11.771Z,5.67
2022-12-22T07:12:38.403Z,5.70
2022-12-22T07:15:05.933Z,5.72
2022-12-22T07:17:32.582Z,5.74
2022-12-22T07:19:59.188Z,5.74
2022-12-22T07:22:30.243Z,5.70
2022-12-22T07:24:59.665Z,5.75
2022-12-22T07:27:26.320Z,5.72
2022-12-22T07:29:52.983Z,5.74
2022-12-22T07:32:19.650Z,5.75
2022-12-22T07:34:46.340Z,5.80
2022-12-22T07:37:13.930Z,5.86
2022-12-22T07:39:40.788Z,5.87
2022-12-22T07:42:26.508Z,5.89
2022-12-22T07:44:54.267Z,5.92
2022-12-22T07:47:21.015Z,5.96
2022-12-22T07:50:06.409Z,5.92
2022-12-22T07:52:33.291Z,5.87
2022-12-22T07:55:00.068Z,5.88
2022-12-22T07:57:26.802Z,5.91
2022-12-22T07:59:53.734Z,5.94
2022-12-22T08:02:20.745Z,5.92
2022-12-22T08:04:47.695Z,5.91
2022-12-22T08:07:14.456Z,5.91
2022-12-22T08:09:41.147Z,5.91
2022-12-22T08:12:07.968Z,5.93
2022-12-22T08:14:34.767Z,5.94
2022-12-22T08:17:01.872Z,5.94
2022-12-22T08:19:28.837Z,5.97
2022-12-22T08:21:55.614Z,5.93
2022-12-22T08:24:22.323Z,5.95
2022-12-22T08:26:51.333Z,5.95
2022-12-22T08:29:21.887Z,5.97
2022-12-22T08:31:48.754Z,5.97
2022-12-22T08:34:16.086Z,5.99
2022-12-22T08:36:47.433Z,5.98
2022-12-22T08:39:15.058Z,5.95
2022-12-22T08:41:50.975Z,5.96
2022-12-22T08:44:20.199Z,5.97
2022-12-22T08:46:47.442Z,5.97
2022-12-22T08:49:14.221Z,5.96
2022-12-22T08:51:40.991Z,6.00
2022-12-22T08:54:08.043Z,6.01
2022-12-22T08:56:35.123Z,5.98
2022-12-22T08:59:05.531Z,5.98
2022-12-22T09:01:36.177Z,5.98
2022-12-22T09:04:03.002Z,5.94
2022-12-22T09:06:34.639Z,5.98
2022-12-22T09:09:06.678Z,6.00
2022-12-22T09:11:33.852Z,6.01
2022-12-22T09:14:02.329Z,6.05
2022-12-22T09:16:30.629Z,6.07
2022-12-22T09:18:57.503Z,6.09
2022-12-22T09:21:24.511Z,6.11
2022-12-22T09:23:51.681Z,6.14
2022-12-22T09:26:20.988Z,6.12
2022-12-22T09:28:50.388Z,6.12
2022-12-22T09:31:21.978Z,6.13
2022-12-22T09:33:49.259Z,6.17
2022-12-22T09:36:18.460Z,6.20
2022-12-22T09:38:45.492Z,6.22
2022-12-22T09:41:41.193Z,6.20
2022-12-22T09:44:16.750Z,6.26
2022-12-22T09:46:43.658Z,6.27
2022-12-22T09:49:15.044Z,6.27
2022-12-22T09:51:47.987Z,6.26
2022-12-22T09:54:17.652Z,6.28
2022-12-22T09:56:46.719Z,6.31
2022-12-22T09:59:16.077Z,6.33
2022-12-22T10:02:10.505Z,6.36
2022-12-22T10:04:54.483Z,6.33
2022-12-22T10:07:32.684Z,6.34
2022-12-22T10:10:09.318Z,6.37
2022-12-22T10:12:36.069Z,6.41
2022-12-22T10:15:02.883Z,6.40
2022-12-22T10:17:32.597Z,6.42
2022-12-22T10:20:14.849Z,6.43
2022-12-22T10:23:02.908Z,6.43
2022-12-22T10:26:17.390Z,6.44
2022-12-22T10:28:27.320Z,6.50
2022-12-22T10:31:26.334Z,6.50
2022-12-22T10:33:55.591Z,6.52
2022-12-22T10:36:25.714Z,6.54
2022-12-22T10:38:55.424Z,6.58
2022-12-22T10:41:24.169Z,6.58
2022-12-22T10:43:52.832Z,6.60
2022-12-22T10:46:28.109Z,6.62
2022-12-22T10:49:09.156Z,6.60
2022-12-22T10:51:35.931Z,6.63
2022-12-22T10:54:03.012Z,6.63
2022-12-22T10:56:31.961Z,6.60
2022-12-22T10:59:01.726Z,6.60
2022-12-22T11:01:36.841Z,6.62
2022-12-22T11:04:15.936Z,6.62
2022-12-22T11:06:43.895Z,6.62
2022-12-22T11:09:32.688Z,6.64
2022-12-22T11:12:21.948Z,6.63
2022-12-22T11:15:01.780Z,6.66
2022-12-22T11:18:06.558Z,6.61
2022-12-22T11:20:45.941Z,6.64
2022-12-22T11:23:55.282Z,6.61
2022-12-22T11:26:44.407Z,6.64
2022-12-22T11:29:22.848Z,6.61
2022-12-22T11:32:14.283Z,6.63
2022-12-22T11:34:58.643Z,6.64
2022-12-22T11:37:52.249Z,6.67
2022-12-22T11:40:32.976Z,6.63
2022-12-22T11:43:11.027Z,6.66
2022-12-22T11:46:03.567Z,6.66
2022-12-22T11:48:56.076Z,6.65
2022-12-22T11:51:33.309Z,6.69
2022-12-22T11:54:28.024Z,6.68
2022-12-22T11:57:11.700Z,6.77
2022-12-22T11:59:54.208Z,6.73
2022-12-22T12:02:38.196Z,6.76
2022-12-22T12:05:22.005Z,6.78
2022-12-22T12:08:04.815Z,6.82
2022-12-22T12:10:36.599Z,6.85
2022-12-22T12:13:43.480Z,6.83
2022-12-22T12:16:24.303Z,6.82
2022-12-22T12:19:03.612Z,6.78
2022-12-22T12:21:43.002Z,6.81
2022-12-22T12:24:25.829Z,6.88
2022-12-22T12:27:05.068Z,6.95
2022-12-22T12:29:42.109Z,6.98
2022-12-22T12:32:17.604Z,6.97
2022-12-22T12:34:47.232Z,6.96
2022-12-22T12:37:26.371Z,6.97
2022-12-22T12:40:27.867Z,6.99
2022-12-22T12:42:56.180Z,7.00
2022-12-22T12:45:41.433Z,7.01
2022-12-22T12:48:33.818Z,7.00
2022-12-22T12:51:02.944Z,7.04
2022-12-22T12:53:30.449Z,7.07
2022-12-22T12:56:02.497Z,7.05
2022-12-22T12:58:35.572Z,7.08
2022-12-22T13:01:04.151Z,7.09
2022-12-22T13:04:01.702Z,7.09
2022-12-22T13:06:51.246Z,7.06
2022-12-22T13:12:33.628Z,7.06
2022-12-22T13:15:01.992Z,7.07
2022-12-22T13:17:42.503Z,7.07
2022-12-22T13:20:20.265Z,7.08
2022-12-22T13:22:52.049Z,7.06
2022-12-22T13:25:19.237Z,7.07
2022-12-22T13:27:46.157Z,7.06
2022-12-22T13:30:19.710Z,7.06
2022-12-22T13:32:48.760Z,7.03
2022-12-22T13:35:44.796Z,6.99
2022-12-22T13:38:37.126Z,6.95
2022-12-22T13:41:13.409Z,6.96
2022-12-22T13:43:42.680Z,6.96
2022-12-22T13:46:09.444Z,6.98
2022-12-22T13:48:45.589Z,7.00
2022-12-22T13:51:19.364Z,7.01
2022-12-22T13:54:08.637Z,6.95
2022-12-22T13:56:40.651Z,6.95
2022-12-22T13:59:19.777Z,6.95
2022-12-22T14:01:51.178Z,6.93
2022-12-22T14:04:18.100Z,6.97
2022-12-22T14:06:44.947Z,6.99
2022-12-22T14:09:16.967Z,6.99
2022-12-22T14:11:58.418Z,6.99
2022-12-22T14:14:36.827Z,6.97
2022-12-22T14:17:04.313Z,6.95
2022-12-22T14:19:34.350Z,6.90
2022-12-22T14:22:05.890Z,6.93
2022-12-22T14:24:38.412Z,6.91
2022-12-22T14:27:06.808Z,6.88
2022-12-22T14:29:33.541Z,6.91
2022-12-22T14:32:02.906Z,6.89
2022-12-22T14:34:34.305Z,6.90
2022-12-22T14:37:02.465Z,6.89
2022-12-22T14:39:32.680Z,6.90
2022-12-22T14:42:04.450Z,6.88
2022-12-22T14:44:34.935Z,6.88
2022-12-22T14:47:06.585Z,6.90
2022-12-22T14:49:33.916Z,6.89
2022-12-22T14:52:08.350Z,6.88
2022-12-22T14:54:35.279Z,6.87
2022-12-22T14:57:15.287Z,6.85
2022-12-22T14:59:58.765Z,6.81
2022-12-22T15:02:40.002Z,6.82
2022-12-22T15:05:12.277Z,6.83
2022-12-22T15:08:07.959Z,6.83
2022-12-22T15:10:45.019Z,6.83
2022-12-22T15:13:24.114Z,6.84
2022-12-22T15:15:52.344Z,6.83
2022-12-22T15:18:24.610Z,6.87
2022-12-22T15:21:02.974Z,6.86
2022-12-22T15:23:33.164Z,6.87
2022-12-22T15:26:01.920Z,6.82
2022-12-22T15:29:20.275Z,6.88
2022-12-22T15:35:35.620Z,6.88
2022-12-22T15:38:24.742Z,6.84
2022-12-22T15:51:39.176Z,6.86
2022-12-22T15:54:15.528Z,6.88
2022-12-22T15:56:48.425Z,6.88
2022-12-22T15:59:26.144Z,6.93
2022-12-22T16:08:45.532Z,6.82
2022-12-22T16:15:34.676Z,6.73
2022-12-22T16:18:02.244Z,6.73
2022-12-22T16:20:51.518Z,6.76
2022-12-22T16:23:20.954Z,6.76
2022-12-22T16:25:48.211Z,6.71
2022-12-22T16:28:18.990Z,6.69
2022-12-22T16:30:49.266Z,6.69
2022-12-22T16:47:37.327Z,6.43
2022-12-22T16:51:19.231Z,6.40
2022-12-22T16:54:55.724Z,6.36
2022-12-22T16:57:51.042Z,6.37
2022-12-22T17:00:23.901Z,6.33
2022-12-22T17:03:05.114Z,6.29
2022-12-22T17:05:45.037Z,6.17
2022-12-22T17:08:23.616Z,6.14
2022-12-22T17:10:54.620Z,6.14
2022-12-22T17:13:26.747Z,6.11
2022-12-22T17:15:54.014Z,6.12
2022-12-22T17:18:24.116Z,6.18
2022-12-22T17:20:55.568Z,6.12
2022-12-22T17:23:35.277Z,6.09
2022-12-22T17:26:27.097Z,6.03
2022-12-22T17:32:01.175Z,6.01
2022-12-22T17:34:37.184Z,6.01
2022-12-22T17:37:26.756Z,5.94
2022-12-22T17:40:30.150Z,5.89
2022-12-22T17:43:07.394Z,5.84
2022-12-22T17:45:34.991Z,5.88
2022-12-22T17:48:23.069Z,5.84
2022-12-22T17:50:50.395Z,5.87
2022-12-22T17:53:21.367Z,5.85
2022-12-22T17:56:09.340Z,5.88
2022-12-22T17:58:57.962Z,5.94
2022-12-22T18:01:39.845Z,5.94
2022-12-22T18:04:12.828Z,5.83
2022-12-22T18:07:02.034Z,5.84
2022-12-22T18:09:33.088Z,5.81
2022-12-22T18:11:59.995Z,5.83
2022-12-22T18:14:30.537Z,5.82
2022-12-22T18:16:57.293Z,5.84
2022-12-22T18:19:24.110Z,5.82
2022-12-22T18:21:56.075Z,5.90
2022-12-22T18:27:35.008Z,5.85
2022-12-22T18:30:01.874Z,5.87
2022-12-22T18:32:34.744Z,5.80
2022-12-22T18:35:01.621Z,5.72
2022-12-22T18:37:28.459Z,5.77
2022-12-22T18:39:55.721Z,5.74
2022-12-22T18:42:32.790Z,5.73
2022-12-22T18:45:01.279Z,6.02
2022-12-22T18:48:13.034Z,5.85
2022-12-22T18:50:52.274Z,5.77
2022-12-22T18:53:28.867Z,5.67
2022-12-22T18:55:56.560Z,5.67
2022-12-22T18:58:24.303Z,5.63
2022-12-22T19:01:27.886Z,5.60
2022-12-22T19:04:01.898Z,5.56
2022-12-22T19:09:27.433Z,5.60
2022-12-22T19:11:56.811Z,5.59
2022-12-22T19:15:03.485Z,5.61
2022-12-22T19:17:30.303Z,5.62
2022-12-22T19:19:57.549Z,5.75
2022-12-22T19:22:24.294Z,5.61
2022-12-22T19:24:51.785Z,5.59
2022-12-22T19:27:27.168Z,5.47
2022-12-22T19:30:02.589Z,5.55
2022-12-22T19:32:34.714Z,5.54
2022-12-22T19:35:01.607Z,5.57
2022-12-22T19:37:28.299Z,5.53
2022-12-22T19:39:54.974Z,5.60
2022-12-22T19:42:22.509Z,5.62
2022-12-22T19:44:49.517Z,5.65
2022-12-22T19:47:19.377Z,5.62
2022-12-22T19:49:49.298Z,5.62
2022-12-22T19:52:19.459Z,5.53
2022-12-22T19:54:49.421Z,5.52
2022-12-22T19:57:27.789Z,5.56
2022-12-22T19:59:55.659Z,5.59
2022-12-22T20:02:31.287Z,5.63
2022-12-22T20:05:10.059Z,5.62
2022-12-22T20:07:43.330Z,5.65
2022-12-22T20:10:10.635Z,5.66
2022-12-22T20:12:39.263Z,5.69
2022-12-22T20:15:30.348Z,5.63
2022-12-22T20:17:57.960Z,5.63
2022-12-22T20:20:36.483Z,5.61
2022-12-22T20:23:12.457Z,5.61
2022-12-22T20:25:41.959Z,5.57
2022-12-22T20:28:19.257Z,5.53
2022-12-22T20:30:47.351Z,5.55
2022-12-22T20:33:15.704Z,5.51
2022-12-22T20:35:44.118Z,5.49
2022-12-22T20:38:16.522Z,5.46
2022-12-22T20:40:43.905Z,5.44
2022-12-22T20:43:19.409Z,5.45
2022-12-22T20:45:49.529Z,5.40
2022-12-22T20:48:29.578Z,5.34
2022-12-22T20:50:56.379Z,5.35
2022-12-22T20:53:23.397Z,5.35
2022-12-22T20:55:51.258Z,5.35
2022-12-22T20:58:34.947Z,5.31
2022-12-22T21:01:02.520Z,5.30
2022-12-22T21:03:29.580Z,5.33
2022-12-22T21:05:56.516Z,5.29
2022-12-22T21:08:25.080Z,5.33
2022-12-22T21:10:53.631Z,5.32
2022-12-22T21:13:21.414Z,5.33
2022-12-22T21:15:50.816Z,5.33
2022-12-22T21:18:24.128Z,5.37
2022-12-22T21:20:51.809Z,5.37
2022-12-22T21:23:19.298Z,5.32
2022-12-22T21:25:49.310Z,5.29
2022-12-22T21:28:36.587Z,5.25
2022-12-22T21:31:04.206Z,5.28
2022-12-22T21:33:31.469Z,5.26
2022-12-22T21:36:05.143Z,5.28
2022-12-22T21:38:33.349Z,5.27
2022-12-22T21:41:00.216Z,5.27
2022-12-22T21:43:26.994Z,5.30
2022-12-22T21:45:53.797Z,5.28
2022-12-22T21:48:24.555Z,5.31
2022-12-22T21:50:51.377Z,5.30
2022-12-22T21:53:22.323Z,5.32
2022-12-22T21:55:49.645Z,5.32
2022-12-22T21:58:16.721Z,5.30
2022-12-22T22:00:46.480Z,5.32
2022-12-22T22:03:14.721Z,5.35
2022-12-22T22:05:42.799Z,5.32
2022-12-22T22:08:11.324Z,5.27
2022-12-22T22:10:40.981Z,5.31
2022-12-22T22:13:13.688Z,5.31
2022-12-22T22:15:40.962Z,5.31
2022-12-22T22:18:09.300Z,5.30
2022-12-22T22:20:36.184Z,5.29
2022-12-22T22:23:03.043Z,5.35
2022-12-22T22:25:29.824Z,5.34
2022-12-22T22:28:02.314Z,5.35
2022-12-22T22:30:31.646Z,5.34
2022-12-22T22:32:58.648Z,5.35
2022-12-22T22:35:31.120Z,5.36
2022-12-22T22:37:58.233Z,5.29
2022-12-22T22:40:28.419Z,5.31
2022-12-22T22:42:57.037Z,5.32
2022-12-22T22:45:24.363Z,5.31
2022-12-22T22:47:53.317Z,5.31
2022-12-22T22:50:21.196Z,5.32
2022-12-22T22:52:48.641Z,5.33
2022-12-22T22:55:15.767Z,5.32
2022-12-22T22:57:43.193Z,5.31
2022-12-22T23:00:14.252Z,5.34
2022-12-22T23:02:41.549Z,5.32
2022-12-22T23:05:09.092Z,5.31
2022-12-22T23:07:36.423Z,5.33
2022-12-22T23:10:04.212Z,5.30
2022-12-22T23:12:31.254Z,5.33
2022-12-22T23:14:58.047Z,5.32
2022-12-22T23:17:24.723Z,5.34
2022-12-22T23:19:51.443Z,5.34
2022-12-22T23:22:18.139Z,5.33
2022-12-22T23:24:44.824Z,5.34
2022-12-22T23:27:11.593Z,5.31
2022-12-22T23:29:38.416Z,5.30
2022-12-22T23:32:05.492Z,5.30
2022-12-22T23:34:32.389Z,5.29
2022-12-22T23:36:59.039Z,5.26
2022-12-22T23:39:25.704Z,5.27
2022-12-22T23:41:52.392Z,5.28
2022-12-22T23:44:19.095Z,5.25
2022-12-22T23:46:45.803Z,5.26
2022-12-22T23:49:12.569Z,5.24
2022-12-22T23:51:40.383Z,5.21
2022-12-22T23:54:07.130Z,5.22
2022-12-22T23:56:33.828Z,5.23
2022-12-22T23:59:00.545Z,5.23
